sensor_id;sensor_type;location;lat;lon;timestamp;pressure;altitude;pressure_sealevel;temperature;humidity
8523;BME280;4299;42.202;24.736;2023-01-26T00:00:44;100540.25;;;3.73;nan
8523;BME280;4299;42.202;24.736;2023-01-26T00:03:11;100533.31;;;3.72;nan
8523;BME280;4299;42.202;24.736;2023-01-26T00:05:37;100528.06;;;3.72;nan
8523;BME280;4299;42.202;24.736;2023-01-26T00:08:06;100530.72;;;3.67;nan
8523;BME280;4299;42.202;24.736;2023-01-26T00:10:34;100529.91;;;3.64;nan
8523;BME280;4299;42.202;24.736;2023-01-26T00:13:01;100519.44;;;3.61;nan
8523;BME280;4299;42.202;24.736;2023-01-26T00:15:27;100509.88;;;3.55;nan
8523;BME280;4299;42.202;24.736;2023-01-26T00:17:54;100498.56;;;3.51;nan
8523;BME280;4299;42.202;24.736;2023-01-26T00:20:21;100491.56;;;3.53;nan
8523;BME280;4299;42.202;24.736;2023-01-26T00:22:47;100488.03;;;3.58;nan
8523;BME280;4299;42.202;24.736;2023-01-26T00:25:15;100488.88;;;3.58;nan
8523;BME280;4299;42.202;24.736;2023-01-26T00:27:42;100479.22;;;3.63;nan
8523;BME280;4299;42.202;24.736;2023-01-26T00:30:09;100476.56;;;3.65;nan
8523;BME280;4299;42.202;24.736;2023-01-26T00:32:36;100477.38;;;3.70;nan
8523;BME280;4299;42.202;24.736;2023-01-26T00:35:04;100477.28;;;3.76;nan
8523;BME280;4299;42.202;24.736;2023-01-26T00:37:31;100469.41;;;3.77;nan
8523;BME280;4299;42.202;24.736;2023-01-26T00:39:58;100479.13;;;3.71;nan
8523;BME280;4299;42.202;24.736;2023-01-26T00:42:26;100485.22;;;3.71;nan
8523;BME280;4299;42.202;24.736;2023-01-26T00:44:53;100478.25;;;3.72;nan
8523;BME280;4299;42.202;24.736;2023-01-26T00:47:19;100485.22;;;3.71;nan
8523;BME280;4299;42.202;24.736;2023-01-26T00:49:46;100484.38;;;3.68;nan
8523;BME280;4299;42.202;24.736;2023-01-26T00:52:12;100482.72;;;3.64;nan
8523;BME280;4299;42.202;24.736;2023-01-26T00:54:39;100487.09;;;3.62;nan
8523;BME280;4299;42.202;24.736;2023-01-26T00:57:06;100473.91;;;3.68;nan
8523;BME280;4299;42.202;24.736;2023-01-26T00:59:34;100472.06;;;3.73;nan
8523;BME280;4299;42.202;24.736;2023-01-26T01:02:01;100473.81;;;3.74;nan
8523;BME280;4299;42.202;24.736;2023-01-26T01:04:28;100469.41;;;3.77;nan
8523;BME280;4299;42.202;24.736;2023-01-26T01:06:55;100473.78;;;3.77;nan
8523;BME280;4299;42.202;24.736;2023-01-26T01:09:21;100466.84;;;3.73;nan
8523;BME280;4299;42.202;24.736;2023-01-26T01:11:48;100461.56;;;3.76;nan
8523;BME280;4299;42.202;24.736;2023-01-26T01:14:15;100457.19;;;3.78;nan
8523;BME280;4299;42.202;24.736;2023-01-26T01:16:44;100451.03;;;3.79;nan
8523;BME280;4299;42.202;24.736;2023-01-26T01:19:12;100438.06;;;3.70;nan
8523;BME280;4299;42.202;24.736;2023-01-26T01:21:40;100449.50;;;3.63;nan
8523;BME280;4299;42.202;24.736;2023-01-26T01:24:07;100448.63;;;3.62;nan
8523;BME280;4299;42.202;24.736;2023-01-26T01:26:34;100455.63;;;3.63;nan
8523;BME280;4299;42.202;24.736;2023-01-26T01:29:01;100456.34;;;3.73;nan
8523;BME280;4299;42.202;24.736;2023-01-26T01:31:28;100456.28;;;3.79;nan
8523;BME280;4299;42.202;24.736;2023-01-26T01:33:57;100449.31;;;3.78;nan
8523;BME280;4299;42.202;24.736;2023-01-26T01:36:24;100443.22;;;3.74;nan
8523;BME280;4299;42.202;24.736;2023-01-26T01:38:51;100438.91;;;3.72;nan
8523;BME280;4299;42.202;24.736;2023-01-26T01:41:19;100437.28;;;3.62;nan
8523;BME280;4299;42.202;24.736;2023-01-26T01:43:47;100436.50;;;3.55;nan
8523;BME280;4299;42.202;24.736;2023-01-26T01:46:18;100436.50;;;3.53;nan
8523;BME280;4299;42.202;24.736;2023-01-26T01:48:51;100446.09;;;3.55;nan
8523;BME280;4299;42.202;24.736;2023-01-26T01:51:26;100428.63;;;3.57;nan
8523;BME280;4299;42.202;24.736;2023-01-26T01:53:58;100430.25;;;3.65;nan
8523;BME280;4299;42.202;24.736;2023-01-26T01:56:29;100425.75;;;3.73;nan
8523;BME280;4299;42.202;24.736;2023-01-26T01:58:58;100431.78;;;3.80;nan
8523;BME280;4299;42.202;24.736;2023-01-26T02:01:26;100424.75;;;3.82;nan
8523;BME280;4299;42.202;24.736;2023-01-26T02:03:56;100416.91;;;3.80;nan
8523;BME280;4299;42.202;24.736;2023-01-26T02:06:29;100411.03;;;3.63;nan
8523;BME280;4299;42.202;24.736;2023-01-26T02:08:58;100405.91;;;3.56;nan
8523;BME280;4299;42.202;24.736;2023-01-26T02:11:28;100400.75;;;3.49;nan
8523;BME280;4299;42.202;24.736;2023-01-26T02:13:57;100393.91;;;3.36;nan
8523;BME280;4299;42.202;24.736;2023-01-26T02:16:24;100405.31;;;3.31;nan
8523;BME280;4299;42.202;24.736;2023-01-26T02:18:51;100395.78;;;3.28;nan
8523;BME280;4299;42.202;24.736;2023-01-26T02:21:19;100387.06;;;3.26;nan
8523;BME280;4299;42.202;24.736;2023-01-26T02:23:56;100386.09;;;3.32;nan
8523;BME280;4299;42.202;24.736;2023-01-26T02:26:28;100380.00;;;3.31;nan
8523;BME280;4299;42.202;24.736;2023-01-26T02:28:57;100379.88;;;3.40;nan
8523;BME280;4299;42.202;24.736;2023-01-26T02:31:24;100378.91;;;3.47;nan
8523;BME280;4299;42.202;24.736;2023-01-26T02:33:51;100380.59;;;3.53;nan
8523;BME280;4299;42.202;24.736;2023-01-26T02:36:20;100381.50;;;3.50;nan
8523;BME280;4299;42.202;24.736;2023-01-26T02:38:57;100366.63;;;3.51;nan
8523;BME280;4299;42.202;24.736;2023-01-26T02:41:27;100367.50;;;3.51;nan
8523;BME280;4299;42.202;24.736;2023-01-26T02:44:12;100370.09;;;3.55;nan
8523;BME280;4299;42.202;24.736;2023-01-26T02:46:40;100365.59;;;3.63;nan
8523;BME280;4299;42.202;24.736;2023-01-26T02:49:06;100366.47;;;3.63;nan
8523;BME280;4299;42.202;24.736;2023-01-26T02:51:51;100360.38;;;3.63;nan
8523;BME280;4299;42.202;24.736;2023-01-26T02:54:17;100364.63;;;3.70;nan
8523;BME280;4299;42.202;24.736;2023-01-26T02:57:03;100356.69;;;3.73;nan
8523;BME280;4299;42.202;24.736;2023-01-26T02:59:30;100353.28;;;3.68;nan
8523;BME280;4299;42.202;24.736;2023-01-26T03:01:56;100361.88;;;3.79;nan
8523;BME280;4299;42.202;24.736;2023-01-26T03:04:23;100356.53;;;3.85;nan
8523;BME280;4299;42.202;24.736;2023-01-26T03:06:50;100351.34;;;3.82;nan
8523;BME280;4299;42.202;24.736;2023-01-26T03:09:17;100354.78;;;3.87;nan
8523;BME280;4299;42.202;24.736;2023-01-26T03:11:43;100351.31;;;3.85;nan
8523;BME280;4299;42.202;24.736;2023-01-26T03:14:13;100352.09;;;3.90;nan
8523;BME280;4299;42.202;24.736;2023-01-26T03:16:40;100349.56;;;3.84;nan
8523;BME280;4299;42.202;24.736;2023-01-26T03:19:09;100339.09;;;3.81;nan
8523;BME280;4299;42.202;24.736;2023-01-26T03:21:57;100334.03;;;3.72;nan
8523;BME280;4299;42.202;24.736;2023-01-26T03:24:41;100333.97;;;3.75;nan
8523;BME280;4299;42.202;24.736;2023-01-26T03:27:25;100330.34;;;3.82;nan
8523;BME280;4299;42.202;24.736;2023-01-26T03:29:54;100339.81;;;3.92;nan
8523;BME280;4299;42.202;24.736;2023-01-26T03:32:24;100332.06;;;3.86;nan
8523;BME280;4299;42.202;24.736;2023-01-26T03:34:51;100333.78;;;3.87;nan
8523;BME280;4299;42.202;24.736;2023-01-26T03:37:18;100328.38;;;3.96;nan
8523;BME280;4299;42.202;24.736;2023-01-26T03:39:48;100316.13;;;3.98;nan
8523;BME280;4299;42.202;24.736;2023-01-26T03:42:34;100299.50;;;3.98;nan
8523;BME280;4299;42.202;24.736;2023-01-26T03:45:20;100296.88;;;3.99;nan
8523;BME280;4299;42.202;24.736;2023-01-26T03:48:06;100305.72;;;3.92;nan
8523;BME280;4299;42.202;24.736;2023-01-26T03:50:51;100302.31;;;3.87;nan
8523;BME280;4299;42.202;24.736;2023-01-26T03:53:35;100302.38;;;3.81;nan
8523;BME280;4299;42.202;24.736;2023-01-26T03:56:19;100294.63;;;3.75;nan
8523;BME280;4299;42.202;24.736;2023-01-26T03:58:50;100286.81;;;3.72;nan
8523;BME280;4299;42.202;24.736;2023-01-26T04:01:19;100283.34;;;3.70;nan
8523;BME280;4299;42.202;24.736;2023-01-26T04:03:49;100285.91;;;3.73;nan
8523;BME280;4299;42.202;24.736;2023-01-26T04:06:35;100279.00;;;3.69;nan
8523;BME280;4299;42.202;24.736;2023-01-26T04:09:20;100279.00;;;3.67;nan
8523;BME280;4299;42.202;24.736;2023-01-26T04:11:47;100279.84;;;3.71;nan
8523;BME280;4299;42.202;24.736;2023-01-26T04:14:14;100283.34;;;3.70;nan
8523;BME280;4299;42.202;24.736;2023-01-26T04:17:01;100269.41;;;3.68;nan
8523;BME280;4299;42.202;24.736;2023-01-26T04:19:46;100285.19;;;3.65;nan
8523;BME280;4299;42.202;24.736;2023-01-26T04:22:34;100286.06;;;3.65;nan
8523;BME280;4299;42.202;24.736;2023-01-26T04:25:05;100269.50;;;3.62;nan
8523;BME280;4299;42.202;24.736;2023-01-26T04:27:32;100270.34;;;3.65;nan
8523;BME280;4299;42.202;24.736;2023-01-26T04:29:59;100265.88;;;3.69;nan
8523;BME280;4299;42.202;24.736;2023-01-26T04:32:27;100265.88;;;3.69;nan
8523;BME280;4299;42.202;24.736;2023-01-26T04:34:54;100267.63;;;3.70;nan
8523;BME280;4299;42.202;24.736;2023-01-26T04:37:20;100258.88;;;3.71;nan
8523;BME280;4299;42.202;24.736;2023-01-26T04:39:47;100259.78;;;3.67;nan
8523;BME280;4299;42.202;24.736;2023-01-26T04:42:14;100251.09;;;3.65;nan
8523;BME280;4299;42.202;24.736;2023-01-26T04:44:40;100245.88;;;3.63;nan
8523;BME280;4299;42.202;24.736;2023-01-26T04:47:07;100248.53;;;3.62;nan
8523;BME280;4299;42.202;24.736;2023-01-26T04:49:35;100247.66;;;3.60;nan
8523;BME280;4299;42.202;24.736;2023-01-26T04:52:02;100246.78;;;3.61;nan
8523;BME280;4299;42.202;24.736;2023-01-26T04:54:29;100245.06;;;3.60;nan
8523;BME280;4299;42.202;24.736;2023-01-26T04:56:55;100250.34;;;3.57;nan
8523;BME280;4299;42.202;24.736;2023-01-26T04:59:22;100250.41;;;3.53;nan
8523;BME280;4299;42.202;24.736;2023-01-26T05:01:49;100248.66;;;3.51;nan
8523;BME280;4299;42.202;24.736;2023-01-26T05:04:15;100251.34;;;3.49;nan
8523;BME280;4299;42.202;24.736;2023-01-26T05:06:43;100253.09;;;3.49;nan
8523;BME280;4299;42.202;24.736;2023-01-26T05:09:10;100247.78;;;3.52;nan
8523;BME280;4299;42.202;24.736;2023-01-26T05:11:37;100255.72;;;3.49;nan
8523;BME280;4299;42.202;24.736;2023-01-26T05:14:03;100251.34;;;3.48;nan
8523;BME280;4299;42.202;24.736;2023-01-26T05:16:30;100248.75;;;3.46;nan
8523;BME280;4299;42.202;24.736;2023-01-26T05:18:57;100239.25;;;3.41;nan
8523;BME280;4299;42.202;24.736;2023-01-26T05:21:23;100236.66;;;3.36;nan
8523;BME280;4299;42.202;24.736;2023-01-26T05:23:53;100236.75;;;3.30;nan
8523;BME280;4299;42.202;24.736;2023-01-26T05:26:20;100240.19;;;3.35;nan
8523;BME280;4299;42.202;24.736;2023-01-26T05:28:46;100240.22;;;3.32;nan
8523;BME280;4299;42.202;24.736;2023-01-26T05:31:13;100235.03;;;3.29;nan
8523;BME280;4299;42.202;24.736;2023-01-26T05:33:40;100228.16;;;3.22;nan
8523;BME280;4299;42.202;24.736;2023-01-26T05:36:07;100235.19;;;3.20;nan
8523;BME280;4299;42.202;24.736;2023-01-26T05:38:34;100229.09;;;3.17;nan
8523;BME280;4299;42.202;24.736;2023-01-26T05:41:05;100217.78;;;3.14;nan
8523;BME280;4299;42.202;24.736;2023-01-26T05:43:31;100211.81;;;3.06;nan
8523;BME280;4299;42.202;24.736;2023-01-26T05:45:58;100224.84;;;3.08;nan
8523;BME280;4299;42.202;24.736;2023-01-26T05:48:25;100219.63;;;3.08;nan
8523;BME280;4299;42.202;24.736;2023-01-26T05:50:54;100220.47;;;3.10;nan
8523;BME280;4299;42.202;24.736;2023-01-26T05:53:21;100223.13;;;3.07;nan
8523;BME280;4299;42.202;24.736;2023-01-26T05:55:48;100218.81;;;3.04;nan
8523;BME280;4299;42.202;24.736;2023-01-26T05:58:16;100223.09;;;3.10;nan
8523;BME280;4299;42.202;24.736;2023-01-26T06:00:42;100221.31;;;3.12;nan
8523;BME280;4299;42.202;24.736;2023-01-26T06:03:09;100223.00;;;3.16;nan
8523;BME280;4299;42.202;24.736;2023-01-26T06:05:36;100221.31;;;3.12;nan
8523;BME280;4299;42.202;24.736;2023-01-26T06:08:03;100223.94;;;3.12;nan
8523;BME280;4299;42.202;24.736;2023-01-26T06:10:30;100230.91;;;3.13;nan
8523;BME280;4299;42.202;24.736;2023-01-26T06:12:56;100223.97;;;3.09;nan
8523;BME280;4299;42.202;24.736;2023-01-26T06:15:25;100213.41;;;3.15;nan
8523;BME280;4299;42.202;24.736;2023-01-26T06:17:51;100214.38;;;3.08;nan
8523;BME280;4299;42.202;24.736;2023-01-26T06:20:18;100214.53;;;2.99;nan
8523;BME280;4299;42.202;24.736;2023-01-26T06:22:44;100211.00;;;3.00;nan
8523;BME280;4299;42.202;24.736;2023-01-26T06:25:13;100210.94;;;3.06;nan
8523;BME280;4299;42.202;24.736;2023-01-26T06:27:40;100214.44;;;3.05;nan
8523;BME280;4299;42.202;24.736;2023-01-26T06:30:07;100210.00;;;3.10;nan
8523;BME280;4299;42.202;24.736;2023-01-26T06:32:35;100211.72;;;3.11;nan
8523;BME280;4299;42.202;24.736;2023-01-26T06:35:02;100214.34;;;3.11;nan
8523;BME280;4299;42.202;24.736;2023-01-26T06:37:30;100219.59;;;3.11;nan
8523;BME280;4299;42.202;24.736;2023-01-26T06:39:57;100223.00;;;3.16;nan
8523;BME280;4299;42.202;24.736;2023-01-26T06:42:24;100215.16;;;3.14;nan
8523;BME280;4299;42.202;24.736;2023-01-26T06:44:50;100214.31;;;3.14;nan
8523;BME280;4299;42.202;24.736;2023-01-26T06:47:17;100204.69;;;3.14;nan
8523;BME280;4299;42.202;24.736;2023-01-26T06:49:44;100200.38;;;3.12;nan
8523;BME280;4299;42.202;24.736;2023-01-26T06:52:21;100196.16;;;3.00;nan
8523;BME280;4299;42.202;24.736;2023-01-26T06:54:48;100200.69;;;2.88;nan
8523;BME280;4299;42.202;24.736;2023-01-26T06:57:15;100192.06;;;2.83;nan
8523;BME280;4299;42.202;24.736;2023-01-26T06:59:41;100192.09;;;2.80;nan
8523;BME280;4299;42.202;24.736;2023-01-26T07:02:09;100188.59;;;2.81;nan
8523;BME280;4299;42.202;24.736;2023-01-26T07:04:40;100186.81;;;2.83;nan
8523;BME280;4299;42.202;24.736;2023-01-26T07:07:08;100190.13;;;2.97;nan
8523;BME280;4299;42.202;24.736;2023-01-26T07:09:34;100184.78;;;3.03;nan
8523;BME280;4299;42.202;24.736;2023-01-26T07:12:01;100182.94;;;3.08;nan
8523;BME280;4299;42.202;24.736;2023-01-26T07:14:27;100173.34;;;3.07;nan
8523;BME280;4299;42.202;24.736;2023-01-26T07:16:54;100175.91;;;3.13;nan
8523;BME280;4299;42.202;24.736;2023-01-26T07:19:20;100166.31;;;3.12;nan
8523;BME280;4299;42.202;24.736;2023-01-26T07:21:47;100160.09;;;3.19;nan
8523;BME280;4299;42.202;24.736;2023-01-26T07:24:15;100154.75;;;3.25;nan
8523;BME280;4299;42.202;24.736;2023-01-26T07:26:41;100157.34;;;3.28;nan
8523;BME280;4299;42.202;24.736;2023-01-26T07:29:08;100158.03;;;3.39;nan
8523;BME280;4299;42.202;24.736;2023-01-26T07:31:34;100148.91;;;3.62;nan
8523;BME280;4299;42.202;24.736;2023-01-26T07:34:01;100140.25;;;3.57;nan
8523;BME280;4299;42.202;24.736;2023-01-26T07:36:28;100149.78;;;3.61;nan
8523;BME280;4299;42.202;24.736;2023-01-26T07:38:54;100149.00;;;3.56;nan
8523;BME280;4299;42.202;24.736;2023-01-26T07:41:22;100149.00;;;3.56;nan
8523;BME280;4299;42.202;24.736;2023-01-26T07:43:49;100147.31;;;3.51;nan
8523;BME280;4299;42.202;24.736;2023-01-26T07:46:16;100147.31;;;3.51;nan
8523;BME280;4299;42.202;24.736;2023-01-26T07:48:42;100143.81;;;3.52;nan
8523;BME280;4299;42.202;24.736;2023-01-26T07:51:08;100149.16;;;3.48;nan
8523;BME280;4299;42.202;24.736;2023-01-26T07:53:36;100150.94;;;3.44;nan
8523;BME280;4299;42.202;24.736;2023-01-26T07:56:04;100148.38;;;3.41;nan
8523;BME280;4299;42.202;24.736;2023-01-26T07:58:32;100151.00;;;3.41;nan
8523;BME280;4299;42.202;24.736;2023-01-26T08:01:09;100150.00;;;3.48;nan
8523;BME280;4299;42.202;24.736;2023-01-26T08:03:35;100145.53;;;3.53;nan
8523;BME280;4299;42.202;24.736;2023-01-26T08:06:02;100143.78;;;3.56;nan
8523;BME280;4299;42.202;24.736;2023-01-26T08:08:29;100142.13;;;3.50;nan
8523;BME280;4299;42.202;24.736;2023-01-26T08:10:56;100130.06;;;3.38;nan
8523;BME280;4299;42.202;24.736;2023-01-26T08:13:23;100134.69;;;3.24;nan
8523;BME280;4299;42.202;24.736;2023-01-26T08:15:50;100144.38;;;3.19;nan
8523;BME280;4299;42.202;24.736;2023-01-26T08:18:17;100136.56;;;3.16;nan
8523;BME280;4299;42.202;24.736;2023-01-26T08:20:48;100134.03;;;3.10;nan
8523;BME280;4299;42.202;24.736;2023-01-26T08:23:14;100131.53;;;3.02;nan
8523;BME280;4299;42.202;24.736;2023-01-26T08:25:41;100127.28;;;2.94;nan
8523;BME280;4299;42.202;24.736;2023-01-26T08:28:07;100129.13;;;2.89;nan
8523;BME280;4299;42.202;24.736;2023-01-26T08:30:33;100124.88;;;2.80;nan
8523;BME280;4299;42.202;24.736;2023-01-26T08:33:02;100129.34;;;2.73;nan
8523;BME280;4299;42.202;24.736;2023-01-26T08:35:29;100122.44;;;2.69;nan
8523;BME280;4299;42.202;24.736;2023-01-26T08:37:56;100129.34;;;2.73;nan
8523;BME280;4299;42.202;24.736;2023-01-26T08:40:23;100117.91;;;2.79;nan
8523;BME280;4299;42.202;24.736;2023-01-26T08:42:50;100110.13;;;2.74;nan
8523;BME280;4299;42.202;24.736;2023-01-26T08:45:16;100116.34;;;2.69;nan
8523;BME280;4299;42.202;24.736;2023-01-26T08:47:43;100113.72;;;2.67;nan
8523;BME280;4299;42.202;24.736;2023-01-26T08:50:11;100101.53;;;2.66;nan
8523;BME280;4299;42.202;24.736;2023-01-26T08:52:38;100103.19;;;2.70;nan
8523;BME280;4299;42.202;24.736;2023-01-26T08:55:04;100105.00;;;2.68;nan
8523;BME280;4299;42.202;24.736;2023-01-26T08:57:31;100093.66;;;2.68;nan
8523;BME280;4299;42.202;24.736;2023-01-26T08:59:58;100096.31;;;2.63;nan
8523;BME280;4299;42.202;24.736;2023-01-26T09:02:24;100093.88;;;2.53;nan
8523;BME280;4299;42.202;24.736;2023-01-26T09:04:50;100086.16;;;2.42;nan
8523;BME280;4299;42.202;24.736;2023-01-26T09:07:18;100094.94;;;2.38;nan
8523;BME280;4299;42.202;24.736;2023-01-26T09:09:45;100086.31;;;2.33;nan
8523;BME280;4299;42.202;24.736;2023-01-26T09:12:11;100088.94;;;2.31;nan
8523;BME280;4299;42.202;24.736;2023-01-26T09:14:38;100077.59;;;2.31;nan
8523;BME280;4299;42.202;24.736;2023-01-26T09:17:05;100084.50;;;2.35;nan
8523;BME280;4299;42.202;24.736;2023-01-26T09:19:31;100072.25;;;2.40;nan
8523;BME280;4299;42.202;24.736;2023-01-26T09:21:58;100080.91;;;2.45;nan
8523;BME280;4299;42.202;24.736;2023-01-26T09:24:26;100070.41;;;2.48;nan
8523;BME280;4299;42.202;24.736;2023-01-26T09:26:52;100075.56;;;2.51;nan
8523;BME280;4299;42.202;24.736;2023-01-26T09:29:19;100063.31;;;2.55;nan
8523;BME280;4299;42.202;24.736;2023-01-26T09:31:45;100069.47;;;2.51;nan
8523;BME280;4299;42.202;24.736;2023-01-26T09:34:12;100063.47;;;2.44;nan
8523;BME280;4299;42.202;24.736;2023-01-26T09:36:38;100047.63;;;2.53;nan
8523;BME280;4299;42.202;24.736;2023-01-26T09:39:04;100042.03;;;2.78;nan
8523;BME280;4299;42.202;24.736;2023-01-26T09:41:41;100027.78;;;2.94;nan
8523;BME280;4299;42.202;24.736;2023-01-26T09:44:09;100031.94;;;3.07;nan
8523;BME280;4299;42.202;24.736;2023-01-26T09:46:45;100030.78;;;3.23;nan
8523;BME280;4299;42.202;24.736;2023-01-26T09:49:16;100026.38;;;3.27;nan
8523;BME280;4299;42.202;24.736;2023-01-26T09:51:45;100023.66;;;3.31;nan
8523;BME280;4299;42.202;24.736;2023-01-26T09:54:17;100011.31;;;3.36;nan
8523;BME280;4299;42.202;24.736;2023-01-26T09:56:48;100011.09;;;3.48;nan
8523;BME280;4299;42.202;24.736;2023-01-26T09:59:18;100008.50;;;3.48;nan
8523;BME280;4299;42.202;24.736;2023-01-26T10:01:50;100009.53;;;3.38;nan
8523;BME280;4299;42.202;24.736;2023-01-26T10:04:23;99998.47;;;3.23;nan
8523;BME280;4299;42.202;24.736;2023-01-26T10:06:56;100002.31;;;3.03;nan
8523;BME280;4299;42.202;24.736;2023-01-26T10:09:25;99993.00;;;2.86;nan
8523;BME280;4299;42.202;24.736;2023-01-26T10:11:55;99989.72;;;2.74;nan
8523;BME280;4299;42.202;24.736;2023-01-26T10:14:26;99989.00;;;2.63;nan
8523;BME280;4299;42.202;24.736;2023-01-26T10:16:56;99971.69;;;2.56;nan
8523;BME280;4299;42.202;24.736;2023-01-26T10:19:29;99974.31;;;2.56;nan
8523;BME280;4299;42.202;24.736;2023-01-26T10:21:58;99962.13;;;2.55;nan
8523;BME280;4299;42.202;24.736;2023-01-26T10:24:27;99972.53;;;2.58;nan
8523;BME280;4299;42.202;24.736;2023-01-26T10:26:56;99961.06;;;2.67;nan
8523;BME280;4299;42.202;24.736;2023-01-26T10:29:23;99968.78;;;2.74;nan
8523;BME280;4299;42.202;24.736;2023-01-26T10:31:49;99954.47;;;2.94;nan
8523;BME280;4299;42.202;24.736;2023-01-26T10:34:16;99948.91;;;3.12;nan
8523;BME280;4299;42.202;24.736;2023-01-26T10:36:46;99938.16;;;3.27;nan
8523;BME280;4299;42.202;24.736;2023-01-26T10:39:13;99934.31;;;3.43;nan
8523;BME280;4299;42.202;24.736;2023-01-26T10:41:56;99928.88;;;3.52;nan
8523;BME280;4299;42.202;24.736;2023-01-26T10:44:30;99933.94;;;3.62;nan
8523;BME280;4299;42.202;24.736;2023-01-26T10:47:04;99926.84;;;3.67;nan
8523;BME280;4299;42.202;24.736;2023-01-26T10:49:31;99907.69;;;3.65;nan
8523;BME280;4299;42.202;24.736;2023-01-26T10:52:05;99905.63;;;3.79;nan
8523;BME280;4299;42.202;24.736;2023-01-26T10:54:32;99907.00;;;3.95;nan
8523;BME280;4299;42.202;24.736;2023-01-26T10:57:03;99910.44;;;3.97;nan
8523;BME280;4299;42.202;24.736;2023-01-26T10:59:33;99892.97;;;3.96;nan
8523;BME280;4299;42.202;24.736;2023-01-26T11:02:20;99898.06;;;4.02;nan
8523;BME280;4299;42.202;24.736;2023-01-26T11:05:14;99898.06;;;4.02;nan
8523;BME280;4299;42.202;24.736;2023-01-26T11:07:44;99892.00;;;4.02;nan
8523;BME280;4299;42.202;24.736;2023-01-26T11:10:24;99876.88;;;4.11;nan
8523;BME280;4299;42.202;24.736;2023-01-26T11:13:06;99885.53;;;4.16;nan
8523;BME280;4299;42.202;24.736;2023-01-26T11:15:34;99874.38;;;4.07;nan
8523;BME280;4299;42.202;24.736;2023-01-26T11:18:02;99876.88;;;4.11;nan
8523;BME280;4299;42.202;24.736;2023-01-26T11:23:21;99873.56;;;4.03;nan
8523;BME280;4299;42.202;24.736;2023-01-26T11:25:56;99865.63;;;4.08;nan
8523;BME280;4299;42.202;24.736;2023-01-26T11:28:38;99857.56;;;4.15;nan
8523;BME280;4299;42.202;24.736;2023-01-26T11:31:15;99860.09;;;4.18;nan
8523;BME280;4299;42.202;24.736;2023-01-26T11:33:46;99849.53;;;4.21;nan
8523;BME280;4299;42.202;24.736;2023-01-26T11:36:25;99841.28;;;4.37;nan
8523;BME280;4299;42.202;24.736;2023-01-26T11:39:03;99833.28;;;4.41;nan
8523;BME280;4299;42.202;24.736;2023-01-26T11:41:42;99826.53;;;4.31;nan
8523;BME280;4299;42.202;24.736;2023-01-26T11:44:24;99806.72;;;4.19;nan
8523;BME280;4299;42.202;24.736;2023-01-26T11:47:20;99812.19;;;4.10;nan
8523;BME280;4299;42.202;24.736;2023-01-26T11:50:03;99799.91;;;4.12;nan
8523;BME280;4299;42.202;24.736;2023-01-26T11:52:39;99793.09;;;4.05;nan
8523;BME280;4299;42.202;24.736;2023-01-26T11:55:23;99789.63;;;4.05;nan
8523;BME280;4299;42.202;24.736;2023-01-26T11:58:14;99785.03;;;4.13;nan
8523;BME280;4299;42.202;24.736;2023-01-26T12:00:50;99791.16;;;4.13;nan
8523;BME280;4299;42.202;24.736;2023-01-26T12:03:23;99783.25;;;4.15;nan
8523;BME280;4299;42.202;24.736;2023-01-26T12:05:54;99786.94;;;4.08;nan
8523;BME280;4299;42.202;24.736;2023-01-26T12:08:27;99775.84;;;3.95;nan
8523;BME280;4299;42.202;24.736;2023-01-26T12:11:05;99774.38;;;3.85;nan
8523;BME280;4299;42.202;24.736;2023-01-26T12:13:56;99759.78;;;3.73;nan
8523;BME280;4299;42.202;24.736;2023-01-26T12:16:34;99763.28;;;3.74;nan
8523;BME280;4299;42.202;24.736;2023-01-26T12:19:10;99758.81;;;3.79;nan
8523;BME280;4299;42.202;24.736;2023-01-26T12:21:43;99767.41;;;3.84;nan
8523;BME280;4299;42.202;24.736;2023-01-26T12:24:16;99758.47;;;3.91;nan
8523;BME280;4299;42.202;24.736;2023-01-26T12:26:48;99756.53;;;3.99;nan
8523;BME280;4299;42.202;24.736;2023-01-26T12:29:21;99754.81;;;3.98;nan
8523;BME280;4299;42.202;24.736;2023-01-26T12:31:57;99749.53;;;4.00;nan
8523;BME280;4299;42.202;24.736;2023-01-26T12:34:28;99756.53;;;3.99;nan
8523;BME280;4299;42.202;24.736;2023-01-26T12:37:11;99754.75;;;4.01;nan
8523;BME280;4299;42.202;24.736;2023-01-26T12:39:45;99748.56;;;4.02;nan
8523;BME280;4299;42.202;24.736;2023-01-26T12:42:18;99740.63;;;4.05;nan
8523;BME280;4299;42.202;24.736;2023-01-26T12:44:52;99753.72;;;4.07;nan
8523;BME280;4299;42.202;24.736;2023-01-26T12:47:30;99741.47;;;4.07;nan
8523;BME280;4299;42.202;24.736;2023-01-26T12:50:00;99739.88;;;4.02;nan
8523;BME280;4299;42.202;24.736;2023-01-26T12:52:35;99728.53;;;4.01;nan
8523;BME280;4299;42.202;24.736;2023-01-26T12:55:10;99723.41;;;3.95;nan
8523;BME280;4299;42.202;24.736;2023-01-26T12:57:43;99728.91;;;3.86;nan
8523;BME280;4299;42.202;24.736;2023-01-26T13:00:19;99725.66;;;3.75;nan
8523;BME280;4299;42.202;24.736;2023-01-26T13:02:51;99720.53;;;3.72;nan
8523;BME280;4299;42.202;24.736;2023-01-26T13:05:29;99729.16;;;3.75;nan
8523;BME280;4299;42.202;24.736;2023-01-26T13:07:57;99727.63;;;3.67;nan
8523;BME280;4299;42.202;24.736;2023-01-26T13:10:26;99726.13;;;3.57;nan
8523;BME280;4299;42.202;24.736;2023-01-26T13:12:56;99717.28;;;3.61;nan
8523;BME280;4299;42.202;24.736;2023-01-26T13:15:25;99711.97;;;3.64;nan
8523;BME280;4299;42.202;24.736;2023-01-26T13:17:58;99713.66;;;3.66;nan
8523;BME280;4299;42.202;24.736;2023-01-26T13:20:40;99703.84;;;3.74;nan
8523;BME280;4299;42.202;24.736;2023-01-26T13:23:41;99694.31;;;3.72;nan
8523;BME280;4299;42.202;24.736;2023-01-26T13:29:25;99695.78;;;3.46;nan
8523;BME280;4299;42.202;24.736;2023-01-26T13:31:53;99689.25;;;3.29;nan
8523;BME280;4299;42.202;24.736;2023-01-26T13:34:25;99694.59;;;3.23;nan
8523;BME280;4299;42.202;24.736;2023-01-26T13:36:55;99686.72;;;3.24;nan
8523;BME280;4299;42.202;24.736;2023-01-26T13:39:29;99682.38;;;3.23;nan
8523;BME280;4299;42.202;24.736;2023-01-26T13:41:56;99676.22;;;3.24;nan
8523;BME280;4299;42.202;24.736;2023-01-26T13:44:29;99671.72;;;3.31;nan
8523;BME280;4299;42.202;24.736;2023-01-26T13:47:06;99659.50;;;3.30;nan
8523;BME280;4299;42.202;24.736;2023-01-26T13:49:38;99650.78;;;3.29;nan
8523;BME280;4299;42.202;24.736;2023-01-26T13:52:15;99647.41;;;3.26;nan
8523;BME280;4299;42.202;24.736;2023-01-26T13:54:42;99649.38;;;3.14;nan
8523;BME280;4299;42.202;24.736;2023-01-26T13:57:09;99637.09;;;3.18;nan
8523;BME280;4299;42.202;24.736;2023-01-26T13:59:46;99643.00;;;3.26;nan